createdAt,value
2018-05-21T00:00:49.912Z,7.10
2018-05-21T00:01:49.854Z,7.80
2018-05-21T00:02:49.826Z,7.10
2018-05-21T00:03:49.806Z,7.60
2018-05-21T00:04:49.762Z,7.70
2018-05-21T00:05:49.705Z,7.60
2018-05-21T00:06:49.675Z,7.00
2018-05-21T00:07:49.626Z,7.30
2018-05-21T00:08:49.578Z,8.20
2018-05-21T00:09:49.564Z,7.00
2018-05-21T00:10:49.497Z,6.60
2018-05-21T00:11:49.488Z,7.50
2018-05-21T00:12:49.429Z,7.40
2018-05-21T00:13:49.379Z,6.80
2018-05-21T00:14:49.353Z,6.90
2018-05-21T00:15:49.319Z,7.50
2018-05-21T00:16:49.345Z,7.10
2018-05-21T00:17:49.237Z,7.50
2018-05-21T00:18:49.242Z,7.80
2018-05-21T00:19:49.168Z,7.40
2018-05-21T00:20:49.113Z,8.00
2018-05-21T00:21:49.081Z,7.40
2018-05-21T00:22:49.049Z,7.30
2018-05-21T00:23:49.026Z,7.60
2018-05-21T00:24:48.969Z,7.40
2018-05-21T00:25:48.923Z,7.00
2018-05-21T00:26:48.881Z,7.40
2018-05-21T00:27:48.874Z,7.40
2018-05-21T00:28:48.820Z,8.30
2018-05-21T00:29:48.770Z,7.60
2018-05-21T00:30:48.735Z,8.20
2018-05-21T00:31:48.693Z,8.30
2018-05-21T00:32:48.683Z,7.10
2018-05-21T00:33:48.620Z,8.30
2018-05-21T00:34:48.592Z,8.00
2018-05-21T00:35:48.533Z,8.20
2018-05-21T00:36:48.514Z,7.60
2018-05-21T00:37:48.459Z,8.50
2018-05-21T00:38:48.467Z,8.00
2018-05-21T00:39:48.389Z,9.20
2018-05-21T00:40:48.504Z,7.80
2018-05-21T00:41:48.317Z,8.90
2018-05-21T00:42:48.301Z,9.50
2018-05-21T00:43:48.242Z,9.50
2018-05-21T00:44:48.190Z,9.50
2018-05-21T00:45:48.165Z,9.30
2018-05-21T00:46:48.112Z,8.60
2018-05-21T00:47:48.073Z,8.90
2018-05-21T00:48:48.036Z,9.40
2018-05-21T00:49:48.002Z,8.60
2018-05-21T00:50:47.987Z,8.90
2018-05-21T00:51:47.936Z,9.00
2018-05-21T00:52:47.885Z,9.70
2018-05-21T00:53:47.871Z,9.70
2018-05-21T00:54:47.807Z,10.30
2018-05-21T00:55:47.774Z,10.50
2018-05-21T00:56:47.732Z,10.40
2018-05-21T00:57:47.697Z,10.40
2018-05-21T00:58:47.646Z,10.90
2018-05-21T00:59:47.622Z,10.90
2018-05-21T01:00:47.605Z,10.10
2018-05-21T01:01:47.541Z,10.80
2018-05-21T01:02:47.550Z,10.40
2018-05-21T01:03:47.518Z,11.50
2018-05-21T01:04:47.425Z,10.40
2018-05-21T01:05:47.383Z,11.80
2018-05-21T01:06:47.344Z,11.20
2018-05-21T01:07:47.343Z,11.40
2018-05-21T01:08:47.296Z,11.40
2018-05-21T01:09:47.251Z,11.30
2018-05-21T01:10:47.255Z,11.50
2018-05-21T01:11:47.172Z,11.20
2018-05-21T01:12:47.131Z,11.40
2018-05-21T01:13:47.070Z,11.40
2018-05-21T01:14:47.050Z,13.60
2018-05-21T01:15:47.002Z,12.60
2018-05-21T01:16:46.974Z,12.70
2018-05-21T01:17:46.924Z,12.50
2018-05-21T01:18:46.901Z,13.80
2018-05-21T01:19:46.864Z,12.90
2018-05-21T01:20:46.804Z,12.40
2018-05-21T01:21:46.772Z,12.40
2018-05-21T01:22:46.729Z,12.70
2018-05-21T01:23:46.696Z,11.80
2018-05-21T01:24:46.727Z,11.80
2018-05-21T01:25:47.574Z,11.70
2018-05-21T01:26:46.585Z,12.70
2018-05-21T01:27:46.556Z,14.70
2018-05-21T01:28:46.495Z,12.00
2018-05-21T01:29:46.462Z,12.50
2018-05-21T01:30:46.418Z,13.00
2018-05-21T01:31:46.408Z,13.90
2018-05-21T01:32:46.354Z,12.50
2018-05-21T01:33:46.329Z,12.60
2018-05-21T01:34:46.308Z,13.20
2018-05-21T01:35:46.231Z,13.20
2018-05-21T01:36:46.241Z,13.70
2018-05-21T01:37:46.152Z,13.20
2018-05-21T01:38:46.118Z,14.20
2018-05-21T01:39:46.071Z,14.00
2018-05-21T01:40:46.031Z,14.50
2018-05-21T01:41:46.033Z,13.80
2018-05-21T01:42:45.951Z,13.00
2018-05-21T01:43:45.945Z,12.90
2018-05-21T01:44:45.922Z,14.00
2018-05-21T01:45:45.861Z,14.10
2018-05-21T01:46:45.811Z,14.30
2018-05-21T01:47:45.810Z,13.10
2018-05-21T01:48:45.732Z,13.90
2018-05-21T01:49:45.689Z,14.30
2018-05-21T01:50:45.643Z,15.00
2018-05-21T01:51:45.642Z,16.40
2018-05-21T01:52:45.596Z,16.60
2018-05-21T01:53:46.079Z,16.50
2018-05-21T01:54:45.512Z,16.70
2018-05-21T01:55:45.470Z,15.00
2018-05-21T01:56:45.426Z,15.10
2018-05-21T01:57:45.390Z,14.80
2018-05-21T01:58:45.376Z,14.80
2018-05-21T01:59:45.313Z,16.00
2018-05-21T02:00:45.271Z,15.80
2018-05-21T02:01:45.225Z,16.00
2018-05-21T02:02:45.195Z,17.20
2018-05-21T02:03:45.154Z,17.10
2018-05-21T02:04:45.106Z,15.90
2018-05-21T02:05:45.075Z,16.40
2018-05-21T02:06:45.035Z,15.70
2018-05-21T02:07:45.059Z,16.20
2018-05-21T02:08:44.980Z,16.00
2018-05-21T02:09:44.903Z,15.20
2018-05-21T02:10:44.893Z,15.40
2018-05-21T02:11:44.835Z,15.40
2018-05-21T02:12:44.844Z,15.70
2018-05-21T02:13:44.759Z,16.50
2018-05-21T02:14:44.731Z,16.60
2018-05-21T02:15:44.679Z,17.60
2018-05-21T02:16:44.632Z,17.50
2018-05-21T02:17:44.644Z,16.20
2018-05-21T02:18:44.569Z,17.40
2018-05-21T02:19:44.522Z,15.90
2018-05-21T02:20:44.484Z,16.00
2018-05-21T02:21:44.480Z,16.80
2018-05-21T02:22:44.454Z,17.60
2018-05-21T02:23:44.362Z,17.50
2018-05-21T02:24:44.394Z,17.50
2018-05-21T02:25:44.331Z,17.20
2018-05-21T02:26:44.274Z,18.40
2018-05-21T02:27:44.211Z,18.80
2018-05-21T02:28:44.191Z,18.40
2018-05-21T02:29:44.153Z,18.20
2018-05-21T02:30:44.088Z,18.30
2018-05-21T02:31:44.059Z,18.30
2018-05-21T02:32:44.031Z,18.60
2018-05-21T02:33:43.998Z,18.00
2018-05-21T02:34:43.960Z,18.60
2018-05-21T02:35:43.992Z,18.60
2018-05-21T02:36:43.862Z,18.80
2018-05-21T02:37:43.859Z,17.90
2018-05-21T02:38:43.788Z,17.60
2018-05-21T02:39:43.757Z,17.40
2018-05-21T02:40:43.744Z,19.10
2018-05-21T02:41:43.663Z,19.40
2018-05-21T02:42:43.630Z,18.00
2018-05-21T02:43:43.599Z,19.30
2018-05-21T02:44:43.544Z,18.70
2018-05-21T02:45:43.538Z,19.10
2018-05-21T02:46:43.471Z,20.20
2018-05-21T02:47:43.425Z,19.20
2018-05-21T02:48:43.403Z,19.20
2018-05-21T02:49:43.373Z,20.10
2018-05-21T02:50:43.326Z,19.30
2018-05-21T02:51:43.281Z,18.70
2018-05-21T02:52:43.244Z,18.80
2018-05-21T02:53:43.193Z,18.30
2018-05-21T02:54:43.172Z,19.70
2018-05-21T02:55:43.127Z,20.80
2018-05-21T02:56:43.179Z,21.30
2018-05-21T02:57:43.066Z,19.00
2018-05-21T02:58:42.998Z,21.30
2018-05-21T02:59:42.968Z,20.10
2018-05-21T03:00:42.925Z,21.20
2018-05-21T03:01:42.901Z,21.00
2018-05-21T03:02:42.834Z,19.30
2018-05-21T03:03:42.810Z,19.40
2018-05-21T03:04:42.769Z,20.80
2018-05-21T03:05:42.729Z,19.00
2018-05-21T03:06:42.697Z,17.40
2018-05-21T03:07:42.663Z,18.20
2018-05-21T03:08:42.632Z,19.80
2018-05-21T03:09:42.578Z,19.90
2018-05-21T03:10:42.546Z,19.60
2018-05-21T03:11:42.505Z,19.60
2018-05-21T03:12:42.458Z,20.70
2018-05-21T03:13:42.446Z,21.00
2018-05-21T03:14:42.388Z,20.70
2018-05-21T03:15:42.367Z,20.10
2018-05-21T03:16:42.305Z,19.70
2018-05-21T03:17:42.274Z,20.90
2018-05-21T03:18:42.223Z,20.20
2018-05-21T03:19:42.176Z,20.40
2018-05-21T03:20:42.158Z,21.50
2018-05-21T03:21:42.113Z,21.70
2018-05-21T03:22:42.073Z,20.30
2018-05-21T03:23:42.038Z,19.90
2018-05-21T03:24:42.000Z,20.90
2018-05-21T03:25:41.958Z,20.70
2018-05-21T03:26:41.911Z,21.10
2018-05-21T03:27:41.915Z,22.80
2018-05-21T03:28:41.863Z,21.40
2018-05-21T03:29:41.790Z,23.40
2018-05-21T03:30:41.777Z,24.10
2018-05-21T03:31:41.775Z,22.30
2018-05-21T03:32:41.698Z,22.30
2018-05-21T03:33:41.631Z,21.70
2018-05-21T03:34:41.680Z,22.20
2018-05-21T03:35:41.578Z,23.10
2018-05-21T03:36:41.527Z,24.80
2018-05-21T03:37:41.476Z,26.80
2018-05-21T03:38:41.441Z,24.20
2018-05-21T03:39:41.403Z,45.20
2018-05-21T03:40:41.359Z,28.40
2018-05-21T03:41:41.314Z,27.10
2018-05-21T03:42:41.282Z,43.20
2018-05-21T03:43:41.253Z,26.40
2018-05-21T03:44:41.210Z,23.30
2018-05-21T03:45:41.188Z,25.10
2018-05-21T03:46:41.126Z,24.80
2018-05-21T03:47:41.118Z,23.50
2018-05-21T03:48:41.038Z,29.40
2018-05-21T03:49:40.997Z,23.00
2018-05-21T03:50:40.976Z,24.40
2018-05-21T03:51:40.984Z,23.50
2018-05-21T03:52:40.927Z,22.50
2018-05-21T03:53:40.855Z,21.40
2018-05-21T03:54:40.868Z,25.90
2018-05-21T03:55:40.780Z,22.90
2018-05-21T03:56:40.728Z,23.80
2018-05-21T03:57:40.691Z,24.00
2018-05-21T03:58:40.650Z,25.20
2018-05-21T03:59:40.606Z,31.90
2018-05-21T04:00:40.583Z,19.70
2018-05-21T04:01:40.541Z,31.30
2018-05-21T04:02:40.518Z,25.80
2018-05-21T04:03:40.477Z,26.20
2018-05-21T04:04:40.439Z,24.90
2018-05-21T04:05:40.383Z,25.10
2018-05-21T04:06:40.355Z,24.10
2018-05-21T04:07:40.289Z,26.80
2018-05-21T04:08:40.283Z,29.70
2018-05-21T04:09:40.217Z,31.50
2018-05-21T04:10:40.181Z,66.50
2018-05-21T04:11:40.175Z,29.90
2018-05-21T04:12:40.617Z,27.70
2018-05-21T04:13:40.069Z,22.40
2018-05-21T04:14:40.027Z,20.80
2018-05-21T04:15:39.994Z,19.70
2018-05-21T04:16:39.943Z,19.10
2018-05-21T04:17:39.919Z,21.50
2018-05-21T04:18:39.920Z,17.50
2018-05-21T04:19:39.831Z,16.70
2018-05-21T04:20:39.806Z,16.80
2018-05-21T04:21:39.784Z,17.60
2018-05-21T04:22:39.730Z,17.40
2018-05-21T04:23:39.689Z,15.70
2018-05-21T04:24:39.654Z,16.20
2018-05-21T04:25:39.685Z,15.60
2018-05-21T04:26:39.563Z,15.00
2018-05-21T04:27:39.579Z,14.60
2018-05-21T04:28:39.515Z,14.90
2018-05-21T04:29:39.466Z,15.00
2018-05-21T04:30:39.426Z,15.80
2018-05-21T04:31:39.394Z,15.60
2018-05-21T04:32:39.350Z,16.40
2018-05-21T04:33:39.308Z,16.20
2018-05-21T04:34:39.291Z,15.70
2018-05-21T04:35:39.265Z,16.10
2018-05-21T04:36:39.245Z,15.20
2018-05-21T04:37:39.138Z,15.10
2018-05-21T04:38:39.131Z,14.70
2018-05-21T04:39:39.088Z,14.40
2018-05-21T04:40:39.065Z,13.90
2018-05-21T04:41:39.002Z,12.80
2018-05-21T04:42:39.006Z,11.80
2018-05-21T04:43:38.956Z,12.30
2018-05-21T04:44:38.903Z,12.30
2018-05-21T04:45:38.865Z,10.70
2018-05-21T04:46:38.821Z,11.70
2018-05-21T04:47:38.791Z,11.00
2018-05-21T04:48:38.736Z,11.10
2018-05-21T04:49:38.708Z,10.80
2018-05-21T04:50:38.677Z,9.60
2018-05-21T04:51:38.641Z,9.60
2018-05-21T04:52:39.125Z,9.00
2018-05-21T04:53:38.606Z,9.70
2018-05-21T04:54:38.541Z,10.50
2018-05-21T04:55:38.500Z,9.80
2018-05-21T04:56:38.455Z,8.60
2018-05-21T04:57:38.404Z,9.10
2018-05-21T04:58:38.380Z,9.10
2018-05-21T04:59:38.349Z,8.50
2018-05-21T05:00:38.314Z,7.30
2018-05-21T05:01:38.282Z,8.30
2018-05-21T05:02:38.226Z,8.10
2018-05-21T05:03:38.197Z,8.40
2018-05-21T05:04:38.161Z,9.60
2018-05-21T05:05:38.148Z,7.90
2018-05-21T05:06:38.090Z,7.80
2018-05-21T05:07:38.057Z,7.60
2018-05-21T05:08:38.038Z,7.20
2018-05-21T05:09:38.027Z,7.10
2018-05-21T05:10:37.974Z,7.20
2018-05-21T05:11:37.976Z,7.20
2018-05-21T05:12:37.925Z,7.00
2018-05-21T05:13:37.882Z,6.70
2018-05-21T05:14:37.870Z,6.90
2018-05-21T05:15:37.868Z,6.80
2018-05-21T05:16:37.822Z,6.10
2018-05-21T05:17:37.822Z,5.90
2018-05-21T05:18:37.699Z,6.20
2018-05-21T05:19:37.706Z,6.10
2018-05-21T05:20:37.666Z,6.30
2018-05-21T05:21:37.628Z,6.10
2018-05-21T05:22:37.587Z,6.30
2018-05-21T05:23:37.553Z,5.70
2018-05-21T05:24:37.519Z,5.80
2018-05-21T05:25:37.507Z,6.10
2018-05-21T05:26:37.585Z,6.30
2018-05-21T05:27:37.442Z,7.30
2018-05-21T05:28:37.443Z,6.00
2018-05-21T05:29:37.381Z,5.90
2018-05-21T05:30:37.371Z,5.40
2018-05-21T05:31:37.340Z,5.70
2018-05-21T05:32:37.301Z,5.60
2018-05-21T05:33:37.292Z,5.70
2018-05-21T05:34:37.256Z,5.90
2018-05-21T05:35:37.210Z,6.90
2018-05-21T05:36:37.174Z,5.90
2018-05-21T05:37:37.158Z,5.90
2018-05-21T05:38:37.139Z,5.90
2018-05-21T05:39:37.108Z,5.70
2018-05-21T05:40:37.089Z,8.60
2018-05-21T05:41:37.021Z,6.70
2018-05-21T05:42:37.019Z,6.10
2018-05-21T05:43:37.009Z,6.00
2018-05-21T05:44:36.932Z,6.20
2018-05-21T05:45:36.910Z,6.30
2018-05-21T05:46:36.911Z,7.70
2018-05-21T05:47:36.845Z,6.30
2018-05-21T05:48:36.844Z,6.00
2018-05-21T05:49:36.793Z,6.40
2018-05-21T05:50:36.745Z,6.40
2018-05-21T05:51:36.712Z,6.50
2018-05-21T05:52:36.713Z,8.50
2018-05-21T05:53:36.673Z,6.20
2018-05-21T05:54:36.640Z,6.50
2018-05-21T05:55:36.617Z,9.20
2018-05-21T05:56:36.601Z,5.80
2018-05-21T05:57:36.541Z,6.20
2018-05-21T05:58:36.550Z,6.10
2018-05-21T05:59:36.486Z,6.60
2018-05-21T06:00:36.459Z,6.70
2018-05-21T06:01:36.422Z,7.10
2018-05-21T06:02:36.397Z,8.80
2018-05-21T06:03:36.362Z,6.20
2018-05-21T06:04:36.330Z,7.00
2018-05-21T06:05:36.292Z,7.00
2018-05-21T06:06:36.262Z,7.50
2018-05-21T06:07:36.248Z,6.50
2018-05-21T06:08:36.222Z,7.50
2018-05-21T06:09:36.165Z,6.30
2018-05-21T06:10:36.148Z,9.90
2018-05-21T06:11:36.124Z,7.20
2018-05-21T06:12:36.085Z,6.10
2018-05-21T06:13:36.055Z,7.00
2018-05-21T06:14:35.993Z,6.20
2018-05-21T06:15:35.993Z,6.20
2018-05-21T06:16:35.936Z,13.00
2018-05-21T06:17:35.960Z,7.90
2018-05-21T06:18:35.914Z,7.70
2018-05-21T06:19:35.842Z,7.70
2018-05-21T06:20:35.811Z,5.70
2018-05-21T06:21:35.769Z,6.10
2018-05-21T06:22:35.748Z,6.00
2018-05-21T06:23:35.735Z,5.70
2018-05-21T06:24:35.683Z,5.70
2018-05-21T06:25:35.643Z,5.50
2018-05-21T06:26:35.638Z,7.20
2018-05-21T06:27:35.586Z,7.20
2018-05-21T06:28:35.564Z,6.80
2018-05-21T06:29:35.522Z,8.30
2018-05-21T06:30:35.520Z,5.90
2018-05-21T06:31:35.466Z,6.50
2018-05-21T06:32:35.421Z,5.40
2018-05-21T06:33:35.392Z,5.30
2018-05-21T06:34:35.400Z,7.20
2018-05-21T06:35:35.341Z,5.60
2018-05-21T06:36:35.311Z,7.40
2018-05-21T06:37:35.275Z,4.90
2018-05-21T06:38:35.236Z,5.40
2018-05-21T06:39:35.199Z,5.90
2018-05-21T06:40:35.175Z,5.10
2018-05-21T06:41:35.133Z,4.70
2018-05-21T06:42:35.114Z,6.20
2018-05-21T06:43:35.078Z,6.70
2018-05-21T06:44:35.045Z,6.00
2018-05-21T06:45:35.006Z,4.80
2018-05-21T06:46:34.978Z,4.90
2018-05-21T06:47:34.939Z,5.10
2018-05-21T06:48:34.903Z,5.10
2018-05-21T06:49:34.895Z,7.60
2018-05-21T06:50:34.843Z,5.10
2018-05-21T06:51:34.944Z,5.10
2018-05-21T06:52:34.787Z,4.90
2018-05-21T06:53:34.875Z,7.40
2018-05-21T06:54:34.715Z,4.50
2018-05-21T06:55:34.683Z,6.40
2018-05-21T06:56:34.658Z,4.30
2018-05-21T06:57:34.652Z,5.70
2018-05-21T06:58:34.594Z,4.70
2018-05-21T06:59:34.584Z,5.60
2018-05-21T07:00:34.556Z,5.10
2018-05-21T07:01:34.515Z,4.70
2018-05-21T07:02:34.501Z,5.20
2018-05-21T07:03:34.471Z,4.90
2018-05-21T07:04:34.453Z,8.20
2018-05-21T07:05:34.424Z,7.00
2018-05-21T07:06:34.381Z,10.10
2018-05-21T07:07:34.344Z,4.80
2018-05-21T07:08:34.323Z,5.00
2018-05-21T07:09:34.278Z,5.20
2018-05-21T07:10:34.290Z,4.30
2018-05-21T07:11:34.282Z,6.30
2018-05-21T07:12:34.339Z,5.10
2018-05-21T07:13:34.201Z,5.00
2018-05-21T07:14:34.166Z,5.30
2018-05-21T07:15:34.135Z,4.90
2018-05-21T07:16:34.109Z,8.80
2018-05-21T07:17:34.092Z,6.10
2018-05-21T07:18:34.070Z,4.50
2018-05-21T07:19:34.058Z,5.90
2018-05-21T07:20:34.016Z,5.10
2018-05-21T07:21:33.983Z,6.20
2018-05-21T07:22:33.975Z,5.30
2018-05-21T07:23:33.954Z,5.30
2018-05-21T07:24:34.009Z,5.90
2018-05-21T07:25:33.909Z,4.40
2018-05-21T07:26:33.880Z,4.90
2018-05-21T07:27:33.858Z,4.30
2018-05-21T07:28:33.850Z,5.50
2018-05-21T07:29:33.799Z,6.50
2018-05-21T07:30:33.826Z,6.20
2018-05-21T07:31:33.835Z,6.20
2018-05-21T07:32:33.749Z,4.20
2018-05-21T07:33:33.729Z,4.50
2018-05-21T07:34:33.691Z,8.40
2018-05-21T07:35:33.685Z,6.00
2018-05-21T07:36:33.690Z,4.10
2018-05-21T07:37:33.671Z,6.40
2018-05-21T07:38:33.762Z,5.70
2018-05-21T07:39:33.693Z,5.00
2018-05-21T07:40:33.585Z,5.10
2018-05-21T07:41:33.641Z,5.00
2018-05-21T07:42:33.550Z,4.90
2018-05-21T07:43:33.507Z,4.40
2018-05-21T07:44:33.514Z,5.50
2018-05-21T07:45:33.479Z,4.30
2018-05-21T07:46:33.501Z,4.60
2018-05-21T07:47:33.448Z,5.90
2018-05-21T07:48:33.462Z,6.50
2018-05-21T07:49:33.421Z,6.80
2018-05-21T07:50:33.540Z,5.70
2018-05-21T07:51:33.453Z,4.90
2018-05-21T07:52:33.346Z,6.20
2018-05-21T07:53:33.327Z,5.80
2018-05-21T07:54:33.318Z,6.30
2018-05-21T07:55:33.279Z,5.50
2018-05-21T07:56:33.257Z,6.60
2018-05-21T07:57:33.240Z,4.80
2018-05-21T07:58:33.219Z,4.60
2018-05-21T07:59:33.193Z,4.80
2018-05-21T08:00:33.179Z,5.70
2018-05-21T08:01:33.166Z,5.00
2018-05-21T08:02:33.148Z,5.10
2018-05-21T08:03:33.157Z,4.30
2018-05-21T08:04:33.129Z,7.50
2018-05-21T08:05:33.102Z,6.20
2018-05-21T08:06:33.075Z,4.60
2018-05-21T08:07:33.047Z,6.60
2018-05-21T08:08:33.006Z,4.50
2018-05-21T08:09:33.028Z,8.10
2018-05-21T08:10:32.998Z,5.40
2018-05-21T08:11:32.997Z,4.90
2018-05-21T08:12:32.951Z,4.30
2018-05-21T08:13:32.942Z,4.30
2018-05-21T08:14:33.048Z,4.70
2018-05-21T08:15:32.889Z,5.60
2018-05-21T08:16:32.868Z,6.80
2018-05-21T08:17:32.848Z,4.70
2018-05-21T08:18:32.821Z,4.50
2018-05-21T08:19:32.793Z,5.40
2018-05-21T08:20:32.791Z,5.80
2018-05-21T08:21:32.831Z,6.90
2018-05-21T08:22:32.756Z,6.10
2018-05-21T08:23:32.745Z,5.10
2018-05-21T08:24:32.708Z,4.50
2018-05-21T08:25:32.828Z,4.60
2018-05-21T08:26:32.676Z,4.60
2018-05-21T08:27:32.681Z,6.50
2018-05-21T08:28:32.647Z,6.70
2018-05-21T08:29:32.626Z,5.60
2018-05-21T08:30:34.848Z,5.50
2018-05-21T08:31:32.572Z,5.60
2018-05-21T08:32:32.610Z,4.80
2018-05-21T08:33:32.558Z,4.50
2018-05-21T08:34:32.529Z,6.90
2018-05-21T08:35:32.506Z,4.30
2018-05-21T08:36:32.506Z,10.90
2018-05-21T08:37:32.460Z,5.90
2018-05-21T08:38:32.457Z,4.40
2018-05-21T08:39:32.422Z,5.90
2018-05-21T08:40:32.396Z,4.40
2018-05-21T08:41:32.389Z,6.10
2018-05-21T08:42:32.374Z,8.50
2018-05-21T08:43:32.376Z,5.00
2018-05-21T08:44:32.324Z,5.70
2018-05-21T08:45:32.293Z,7.10
2018-05-21T08:46:32.304Z,4.30
2018-05-21T08:47:32.280Z,6.30
2018-05-21T08:48:32.280Z,5.60
2018-05-21T08:49:32.220Z,4.90
2018-05-21T08:50:32.199Z,4.10
2018-05-21T08:51:32.218Z,3.90
2018-05-21T08:52:32.209Z,7.80
2018-05-21T08:53:32.146Z,4.50
2018-05-21T08:54:32.146Z,4.60
2018-05-21T08:55:32.116Z,5.60
2018-05-21T08:56:32.225Z,4.80
2018-05-21T08:57:32.087Z,4.60
2018-05-21T08:58:32.043Z,5.60
2018-05-21T08:59:32.067Z,5.40
2018-05-21T09:00:32.084Z,5.00
2018-05-21T09:01:31.995Z,5.20
2018-05-21T09:02:31.993Z,4.10
2018-05-21T09:03:32.009Z,5.50
2018-05-21T09:04:31.937Z,5.10
2018-05-21T09:05:31.962Z,4.90
2018-05-21T09:06:31.885Z,8.10
2018-05-21T09:07:31.867Z,4.30
2018-05-21T09:08:31.875Z,5.00
2018-05-21T09:09:31.830Z,4.40
2018-05-21T09:10:31.806Z,5.10
2018-05-21T09:11:31.798Z,6.30
2018-05-21T09:12:31.944Z,3.50
2018-05-21T09:13:31.757Z,6.30
2018-05-21T09:14:31.782Z,4.50
2018-05-21T09:15:31.715Z,4.90
2018-05-21T09:16:31.773Z,5.00
2018-05-21T09:17:31.699Z,6.10
2018-05-21T09:18:31.663Z,5.20
2018-05-21T09:19:31.646Z,5.20
2018-05-21T09:20:31.606Z,4.50
2018-05-21T09:21:31.598Z,5.90
2018-05-21T09:22:31.618Z,5.40
2018-05-21T09:23:31.658Z,6.20
2018-05-21T09:24:31.624Z,5.40
2018-05-21T09:25:31.569Z,4.20
2018-05-21T09:26:31.529Z,6.30
2018-05-21T09:27:31.503Z,4.90
2018-05-21T09:28:31.461Z,5.80
2018-05-21T09:29:31.443Z,5.10
2018-05-21T09:30:31.411Z,5.40
2018-05-21T09:31:31.389Z,6.80
2018-05-21T09:32:31.468Z,4.80
2018-05-21T09:33:31.378Z,5.80
2018-05-21T09:34:31.340Z,5.60
2018-05-21T09:35:31.320Z,7.40
2018-05-21T09:36:31.297Z,5.80
2018-05-21T09:37:31.348Z,5.40
2018-05-21T09:38:31.262Z,5.20
2018-05-21T09:39:31.248Z,7.70
2018-05-21T09:40:31.223Z,4.10
2018-05-21T09:41:31.244Z,4.00
2018-05-21T09:42:31.182Z,6.00
2018-05-21T09:43:31.188Z,4.30
2018-05-21T09:44:31.128Z,6.10
2018-05-21T09:45:31.167Z,4.20
2018-05-21T09:46:31.136Z,5.80
2018-05-21T09:47:31.154Z,6.10
2018-05-21T09:48:31.136Z,4.00
2018-05-21T09:49:31.150Z,5.30
2018-05-21T09:50:31.015Z,4.10
2018-05-21T09:51:31.018Z,3.90
2018-05-21T09:52:30.995Z,7.70
2018-05-21T09:53:31.025Z,7.60
2018-05-21T09:54:30.966Z,6.60
2018-05-21T09:55:30.939Z,6.70
2018-05-21T09:56:30.896Z,5.40
2018-05-21T09:57:30.861Z,6.10
2018-05-21T09:58:30.868Z,5.30
2018-05-21T09:59:30.825Z,5.00
2018-05-21T10:00:30.861Z,4.90
2018-05-21T10:01:30.795Z,6.30
2018-05-21T10:02:30.777Z,4.10
2018-05-21T10:03:30.758Z,4.90
2018-05-21T10:04:30.720Z,5.70
2018-05-21T10:05:30.689Z,5.60
2018-05-21T10:06:30.682Z,4.90
2018-05-21T10:07:30.721Z,5.90
2018-05-21T10:08:30.661Z,5.60
2018-05-21T10:09:30.643Z,6.10
2018-05-21T10:10:30.650Z,3.90
2018-05-21T10:11:30.622Z,4.60
2018-05-21T10:12:30.577Z,6.10
2018-05-21T10:13:30.546Z,5.90
2018-05-21T10:14:30.568Z,6.00
2018-05-21T10:15:30.484Z,7.50
2018-05-21T10:16:30.537Z,4.00
2018-05-21T10:17:30.483Z,6.80
2018-05-21T10:18:30.433Z,5.20
2018-05-21T10:19:30.478Z,5.90
2018-05-21T10:20:30.404Z,5.10
2018-05-21T10:21:30.387Z,4.70
2018-05-21T10:22:30.428Z,6.40
2018-05-21T10:23:30.334Z,4.60
2018-05-21T10:24:30.315Z,7.30
2018-05-21T10:25:30.310Z,5.20
2018-05-21T10:26:30.276Z,6.00
2018-05-21T10:27:30.243Z,4.70
2018-05-21T10:28:30.506Z,4.20
2018-05-21T10:29:30.232Z,5.30
2018-05-21T10:30:30.185Z,4.40
2018-05-21T10:31:30.208Z,4.60
2018-05-21T10:32:30.168Z,5.80
2018-05-21T10:33:30.167Z,4.40
2018-05-21T10:34:30.196Z,4.70
2018-05-21T10:35:30.100Z,3.90
2018-05-21T10:36:30.056Z,4.60
2018-05-21T10:37:30.105Z,5.00
2018-05-21T10:38:30.025Z,6.00
2018-05-21T10:39:30.035Z,3.40
2018-05-21T10:40:30.101Z,4.20
2018-05-21T10:41:29.956Z,5.70
2018-05-21T10:42:29.945Z,4.90
2018-05-21T10:43:29.899Z,4.90
2018-05-21T10:44:29.933Z,5.70
2018-05-21T10:45:29.907Z,4.50
2018-05-21T10:46:29.859Z,5.00
2018-05-21T10:47:29.869Z,4.10
2018-05-21T10:48:29.811Z,4.50
2018-05-21T10:49:29.905Z,3.80
2018-05-21T10:50:29.781Z,3.60
2018-05-21T10:51:29.813Z,4.90
2018-05-21T10:52:29.776Z,4.40
2018-05-21T10:53:29.741Z,4.60
2018-05-21T10:54:29.732Z,4.90
2018-05-21T10:55:29.675Z,5.10
2018-05-21T10:56:29.663Z,3.80
2018-05-21T10:57:29.663Z,5.50
2018-05-21T10:58:29.611Z,6.10
2018-05-21T10:59:29.567Z,8.70
2018-05-21T11:00:29.550Z,5.20
2018-05-21T11:01:29.555Z,3.80
2018-05-21T11:02:29.524Z,4.90
2018-05-21T11:03:29.531Z,4.00
2018-05-21T11:04:29.469Z,7.20
2018-05-21T11:05:29.442Z,3.80
2018-05-21T11:06:29.462Z,6.40
2018-05-21T11:07:29.425Z,4.20
2018-05-21T11:08:29.398Z,8.20
2018-05-21T11:09:29.354Z,6.50
2018-05-21T11:10:29.330Z,5.10
2018-05-21T11:11:29.399Z,3.60
2018-05-21T11:12:29.310Z,6.40
2018-05-21T11:13:29.284Z,5.10
2018-05-21T11:14:29.282Z,5.80
2018-05-21T11:15:29.234Z,5.10
2018-05-21T11:16:29.269Z,4.10
2018-05-21T11:17:29.186Z,3.10
2018-05-21T11:18:29.162Z,5.90
2018-05-21T11:19:29.144Z,4.50
2018-05-21T11:20:29.126Z,5.70
2018-05-21T11:21:29.120Z,4.90
2018-05-21T11:22:29.087Z,3.90
2018-05-21T11:23:29.063Z,5.00
2018-05-21T11:24:29.049Z,4.50
2018-05-21T11:25:29.016Z,4.50
2018-05-21T11:26:29.000Z,4.00
2018-05-21T11:27:28.993Z,6.50
2018-05-21T11:28:28.987Z,5.70
2018-05-21T11:29:28.954Z,3.60
2018-05-21T11:30:28.922Z,5.50
2018-05-21T11:31:28.914Z,3.70
2018-05-21T11:32:28.870Z,4.80
2018-05-21T11:33:28.849Z,6.20
2018-05-21T11:34:28.837Z,4.10
2018-05-21T11:35:28.809Z,4.60
2018-05-21T11:36:28.800Z,3.90
2018-05-21T11:37:28.769Z,5.90
2018-05-21T11:38:28.744Z,3.10
2018-05-21T11:39:28.725Z,4.20
2018-05-21T11:40:28.724Z,4.30
2018-05-21T11:41:28.707Z,4.50
2018-05-21T11:42:28.649Z,7.40
2018-05-21T11:43:28.631Z,3.70
2018-05-21T11:44:28.673Z,9.80
2018-05-21T11:45:28.602Z,5.50
2018-05-21T11:46:28.598Z,5.20
2018-05-21T11:47:28.562Z,5.60
2018-05-21T11:48:28.543Z,3.70
2018-05-21T11:49:28.501Z,4.80
2018-05-21T11:50:28.514Z,5.50
2018-05-21T11:51:28.481Z,5.50
2018-05-21T11:52:28.444Z,4.60
2018-05-21T11:53:28.416Z,4.20
2018-05-21T11:54:28.476Z,3.90
2018-05-21T11:55:28.379Z,3.80
2018-05-21T11:56:28.372Z,5.40
2018-05-21T11:57:28.339Z,4.50
2018-05-21T11:58:28.306Z,4.90
2018-05-21T11:59:28.325Z,5.10
2018-05-21T12:00:28.296Z,4.50
2018-05-21T12:01:28.253Z,5.40
2018-05-21T12:02:28.261Z,4.40
2018-05-21T12:03:28.218Z,5.90
2018-05-21T12:04:28.188Z,3.40
2018-05-21T12:05:28.186Z,4.90
2018-05-21T12:06:28.144Z,3.70
2018-05-21T12:07:28.155Z,3.20
2018-05-21T12:08:28.170Z,4.90
2018-05-21T12:09:28.107Z,3.40
2018-05-21T12:10:28.080Z,4.60
2018-05-21T12:11:28.050Z,4.20
2018-05-21T12:12:28.022Z,5.30
2018-05-21T12:13:28.048Z,4.50
2018-05-21T12:14:27.968Z,4.80
2018-05-21T12:15:27.964Z,4.10
2018-05-21T12:16:27.936Z,3.30
2018-05-21T12:17:27.928Z,3.00
2018-05-21T12:18:27.903Z,4.20
2018-05-21T12:19:27.874Z,6.40
2018-05-21T12:20:27.862Z,3.80
2018-05-21T12:21:27.872Z,5.40
2018-05-21T12:22:27.964Z,3.70
2018-05-21T12:23:27.788Z,7.80
2018-05-21T12:24:27.783Z,6.00
2018-05-21T12:25:27.797Z,4.10
2018-05-21T12:26:27.732Z,6.60
2018-05-21T12:27:27.731Z,5.10
2018-05-21T12:28:27.700Z,4.40
2018-05-21T12:29:27.681Z,3.70
2018-05-21T12:30:27.695Z,5.50
2018-05-21T12:31:27.634Z,4.10
2018-05-21T12:32:27.592Z,5.20
2018-05-21T12:33:27.578Z,4.80
2018-05-21T12:34:27.576Z,3.30
2018-05-21T12:35:27.529Z,6.20
2018-05-21T12:36:27.539Z,3.70
2018-05-21T12:37:27.489Z,5.60
2018-05-21T12:38:27.483Z,7.10
2018-05-21T12:39:27.472Z,6.20
2018-05-21T12:40:27.431Z,6.20
2018-05-21T12:41:27.447Z,4.00
2018-05-21T12:42:27.397Z,4.70
2018-05-21T12:43:27.387Z,5.10
2018-05-21T12:44:27.347Z,6.00
2018-05-21T12:45:27.344Z,5.30
2018-05-21T12:46:27.339Z,4.50
2018-05-21T12:47:27.301Z,7.10
2018-05-21T12:48:27.280Z,4.00
2018-05-21T12:49:27.284Z,3.70
2018-05-21T12:50:27.309Z,3.30
2018-05-21T12:51:27.238Z,4.30
2018-05-21T12:52:27.224Z,3.40
2018-05-21T12:53:27.213Z,3.30
2018-05-21T12:54:27.167Z,3.10
2018-05-21T12:55:27.118Z,4.50
2018-05-21T12:56:27.116Z,4.10
2018-05-21T12:57:27.088Z,4.40
2018-05-21T12:58:27.058Z,3.50
2018-05-21T12:59:27.053Z,4.20
2018-05-21T13:00:27.029Z,4.60
2018-05-21T13:01:27.019Z,3.80
2018-05-21T13:02:27.039Z,5.00
2018-05-21T13:03:27.000Z,4.60
2018-05-21T13:04:26.980Z,5.30
2018-05-21T13:05:26.947Z,6.50
2018-05-21T13:06:26.961Z,3.90
2018-05-21T13:07:26.910Z,3.10
2018-05-21T13:08:26.860Z,4.20
2018-05-21T13:09:26.822Z,4.80
2018-05-21T13:10:26.857Z,6.00